Main page
METAR-TAF:

METAR-TAF

Airports :

Cherbourg – Maupertus Airport

Cherbourg, France

latitude: 49-39N, longitude: 001-28W, elevation: 138 m

Current weather observation

The report was made 37 minutes ago, at 18:30 UTC
Wind 8 kt from the South/Southeast
Temperature 3°C
Humidity 75%
Pressure 1014 hPa
Visibility 10 km or more

METAR: LFRC 211830Z AUTO 15008KT 9999 // NSC 03/M01 Q1014

Time: 20:07 (19:07 UTC)

Forecast

The report was made 5 hours and 7 minutes ago, at 14:00 UTC
Forecast valid from 21 at 15 UTC to 21 at 24 UTC
Wind 8 kt from the South/Southeast
Visibility 10 km or more
no clouds below 1500 m and no cumulonimbus

TAF: LFRC 211400Z 2115/2124 15008KT CAVOK

Weather observations and forecasts of more than 4000 airports (METAR and TAF reports).

The available stations are represented by yellow and red dots on the map.

Hover mouse over dot to see the name of the station.

Then click to see weather observations and forecasts.

To change the map : click on the green buttons with a black cross to zoom in, on the green button with a dash to zoom out, or on the green arrows for adjacent maps.


METAR-TAF: